createdAt,value
2017-09-15T00:00:00.489Z,0
2017-09-15T00:01:01.090Z,0
2017-09-15T00:02:01.735Z,0
2017-09-15T00:03:02.440Z,0
2017-09-15T00:04:03.054Z,0
2017-09-15T00:05:03.658Z,0
2017-09-15T00:06:04.272Z,0
2017-09-15T00:07:04.877Z,0
2017-09-15T00:08:05.585Z,0
2017-09-15T00:09:06.198Z,0
2017-09-15T00:10:06.804Z,0
2017-09-15T00:11:07.412Z,0
2017-09-15T00:12:08.019Z,0
2017-09-15T00:13:08.730Z,0
2017-09-15T00:14:09.366Z,0
2017-09-15T00:15:09.973Z,0
2017-09-15T00:16:10.589Z,0
2017-09-15T00:17:11.199Z,0
2017-09-15T00:18:11.902Z,0
2017-09-15T00:19:12.511Z,0
2017-09-15T00:20:13.117Z,0
2017-09-15T00:21:13.725Z,0
2017-09-15T00:22:14.364Z,0
2017-09-15T00:23:15.071Z,0
2017-09-15T00:24:15.683Z,0
2017-09-15T00:25:16.288Z,0
2017-09-15T00:26:16.897Z,0
2017-09-15T00:27:17.541Z,0
2017-09-15T00:28:18.246Z,0
2017-09-15T00:29:18.854Z,0
2017-09-15T00:30:19.463Z,0
2017-09-15T00:31:20.070Z,0
2017-09-15T00:32:20.682Z,0
2017-09-15T00:33:21.385Z,0
2017-09-15T00:34:21.999Z,0
2017-09-15T00:35:22.604Z,0
2017-09-15T00:36:23.249Z,0
2017-09-15T00:37:23.890Z,0
2017-09-15T00:38:24.597Z,0
2017-09-15T00:39:25.205Z,0
2017-09-15T00:40:25.811Z,0
2017-09-15T00:41:26.417Z,0
2017-09-15T00:42:27.029Z,0
2017-09-15T00:43:27.787Z,0
2017-09-15T00:44:28.431Z,0
2017-09-15T00:45:29.035Z,0
2017-09-15T00:46:29.641Z,0
2017-09-15T00:47:30.253Z,0
2017-09-15T00:48:31.015Z,0
2017-09-15T00:49:31.619Z,0
2017-09-15T00:50:32.226Z,0
2017-09-15T00:51:32.840Z,0
2017-09-15T00:52:33.444Z,0
2017-09-15T00:53:34.202Z,0
2017-09-15T00:54:34.814Z,0
2017-09-15T00:55:35.417Z,0
2017-09-15T00:56:36.058Z,0
2017-09-15T00:57:36.702Z,0
2017-09-15T00:58:37.467Z,0
2017-09-15T00:59:38.068Z,0
2017-09-15T01:00:38.711Z,0
2017-09-15T01:01:39.315Z,0
2017-09-15T01:02:39.922Z,0
2017-09-15T01:03:40.677Z,0
2017-09-15T01:04:41.287Z,0
2017-09-15T01:05:41.895Z,0
2017-09-15T01:06:42.502Z,0
2017-09-15T01:07:43.108Z,0
2017-09-15T01:08:43.867Z,0
2017-09-15T01:09:44.478Z,0
2017-09-15T01:10:45.083Z,0
2017-09-15T01:11:45.689Z,0
2017-09-15T01:12:46.324Z,0
2017-09-15T01:13:47.059Z,0
2017-09-15T01:14:47.698Z,0
2017-09-15T01:15:48.305Z,0
2017-09-15T01:16:48.919Z,0
2017-09-15T01:17:49.555Z,0
2017-09-15T01:18:50.311Z,0
2017-09-15T01:19:50.924Z,0
2017-09-15T01:20:51.528Z,0
2017-09-15T01:21:52.137Z,0
2017-09-15T01:22:52.743Z,0
2017-09-15T01:23:53.506Z,0
2017-09-15T01:24:54.115Z,0
2017-09-15T01:25:54.719Z,0
2017-09-15T01:26:55.324Z,0
2017-09-15T01:27:55.969Z,0
2017-09-15T01:28:56.724Z,0
2017-09-15T01:29:57.330Z,0
2017-09-15T01:30:57.937Z,0
2017-09-15T01:31:58.549Z,0
2017-09-15T01:32:59.153Z,0
2017-09-15T01:33:59.914Z,0
2017-09-15T01:35:00.519Z,0
2017-09-15T01:36:01.127Z,0
2017-09-15T01:37:01.739Z,0
2017-09-15T01:38:02.342Z,0
2017-09-15T01:39:03.107Z,0
2017-09-15T01:40:03.712Z,0
2017-09-15T01:41:04.323Z,0
2017-09-15T01:42:04.935Z,0
2017-09-15T01:43:05.538Z,0
2017-09-15T01:44:06.297Z,0
2017-09-15T01:45:06.910Z,0
2017-09-15T01:46:07.516Z,0
2017-09-15T01:47:08.121Z,0
2017-09-15T01:48:08.727Z,0
2017-09-15T01:49:09.488Z,0
2017-09-15T01:50:10.124Z,0
2017-09-15T01:51:10.732Z,0
2017-09-15T01:52:11.345Z,0
2017-09-15T01:53:11.954Z,0
2017-09-15T01:54:12.711Z,0
2017-09-15T01:55:13.320Z,0
2017-09-15T01:56:13.924Z,0
2017-09-15T01:57:14.571Z,0
2017-09-15T01:58:15.172Z,0
2017-09-15T01:59:15.933Z,0
2017-09-15T02:00:16.540Z,0
2017-09-15T02:01:17.147Z,0
2017-09-15T02:02:17.753Z,0
2017-09-15T02:03:18.365Z,0
2017-09-15T02:04:19.120Z,0
2017-09-15T02:05:19.729Z,0
2017-09-15T02:06:20.368Z,0
2017-09-15T02:07:20.977Z,0
2017-09-15T02:08:21.583Z,0
2017-09-15T02:09:22.340Z,0
2017-09-15T02:10:22.959Z,0
2017-09-15T02:11:23.558Z,0
2017-09-15T02:12:24.166Z,0
2017-09-15T02:13:24.808Z,0
2017-09-15T02:14:25.594Z,0
2017-09-15T02:15:26.203Z,0
2017-09-15T02:16:26.845Z,0
2017-09-15T02:17:27.451Z,0
2017-09-15T02:18:28.057Z,0
2017-09-15T02:19:28.846Z,0
2017-09-15T02:20:29.454Z,0
2017-09-15T02:21:30.059Z,0
2017-09-15T02:22:30.666Z,0
2017-09-15T02:23:31.273Z,0
2017-09-15T02:24:32.028Z,0
2017-09-15T02:25:32.636Z,0
2017-09-15T02:26:33.244Z,0
2017-09-15T02:27:33.850Z,0
2017-09-15T02:28:34.459Z,0
2017-09-15T02:29:35.243Z,0
2017-09-15T02:30:35.852Z,0
2017-09-15T02:31:36.460Z,0
2017-09-15T02:32:37.064Z,0
2017-09-15T02:33:37.672Z,0
2017-09-15T02:34:38.429Z,0
2017-09-15T02:35:39.042Z,0
2017-09-15T02:36:39.652Z,0
2017-09-15T02:37:40.254Z,0
2017-09-15T02:38:40.860Z,0
2017-09-15T02:39:41.618Z,0
2017-09-15T02:40:42.223Z,0
2017-09-15T02:41:42.831Z,0
2017-09-15T02:42:43.438Z,0
2017-09-15T02:43:44.045Z,0
2017-09-15T02:44:44.801Z,0
2017-09-15T02:45:45.414Z,0
2017-09-15T02:46:46.052Z,0
2017-09-15T02:47:46.666Z,0
2017-09-15T02:48:47.269Z,0
2017-09-15T02:49:48.028Z,0
2017-09-15T02:50:48.631Z,0
2017-09-15T02:51:49.239Z,0
2017-09-15T02:52:49.882Z,0
2017-09-15T02:53:50.499Z,0
2017-09-15T02:54:51.244Z,0
2017-09-15T02:55:51.850Z,0
2017-09-15T02:56:52.490Z,0
2017-09-15T02:57:53.097Z,0
2017-09-15T02:58:53.740Z,0
2017-09-15T02:59:54.495Z,0
2017-09-15T03:00:55.101Z,0
2017-09-15T03:01:55.709Z,0
2017-09-15T03:02:56.317Z,0
2017-09-15T03:03:56.928Z,0
2017-09-15T03:04:57.682Z,0
2017-09-15T03:05:58.290Z,0
2017-09-15T03:06:58.897Z,0
2017-09-15T03:07:59.503Z,0
2017-09-15T03:09:00.111Z,0
2017-09-15T03:10:00.867Z,0
2017-09-15T03:11:01.482Z,0
2017-09-15T03:12:02.084Z,0
2017-09-15T03:13:02.692Z,0
2017-09-15T03:14:03.299Z,0
2017-09-15T03:15:04.055Z,0
2017-09-15T03:16:04.661Z,0
2017-09-15T03:17:05.268Z,0
2017-09-15T03:18:05.874Z,0
2017-09-15T03:19:06.486Z,0
2017-09-15T03:20:07.237Z,0
2017-09-15T03:21:07.843Z,0
2017-09-15T03:22:08.452Z,0
2017-09-15T03:23:09.057Z,0
2017-09-15T03:24:09.665Z,0
2017-09-15T03:25:10.420Z,0
2017-09-15T03:26:11.028Z,0
2017-09-15T03:27:11.634Z,0
2017-09-15T03:28:12.242Z,0
2017-09-15T03:29:12.853Z,0
2017-09-15T03:30:13.615Z,0
2017-09-15T03:31:14.250Z,0
2017-09-15T03:32:14.863Z,0
2017-09-15T03:33:15.465Z,0
2017-09-15T03:34:16.072Z,0
2017-09-15T03:35:16.865Z,0
2017-09-15T03:36:17.506Z,0
2017-09-15T03:37:18.116Z,0
2017-09-15T03:38:18.718Z,0
2017-09-15T03:39:19.330Z,0
2017-09-15T03:40:20.083Z,0
2017-09-15T03:41:20.691Z,0
2017-09-15T03:42:21.300Z,0
2017-09-15T03:43:21.903Z,0
2017-09-15T03:44:22.508Z,0
2017-09-15T03:45:23.270Z,0
2017-09-15T03:46:23.909Z,0
2017-09-15T03:47:24.555Z,0
2017-09-15T03:48:25.156Z,0
2017-09-15T03:49:25.770Z,0
2017-09-15T03:50:26.524Z,0
2017-09-15T03:51:27.132Z,0
2017-09-15T03:52:27.739Z,0
2017-09-15T03:53:28.355Z,0
2017-09-15T03:54:28.986Z,0
2017-09-15T03:55:29.742Z,0
2017-09-15T03:56:30.357Z,0
2017-09-15T03:57:30.964Z,0
2017-09-15T03:58:31.573Z,0
2017-09-15T03:59:32.184Z,0
2017-09-15T04:00:32.935Z,0
2017-09-15T04:01:33.542Z,0
2017-09-15T04:02:34.149Z,0
2017-09-15T04:03:34.755Z,0
2017-09-15T04:04:35.359Z,0
2017-09-15T04:05:36.115Z,0
2017-09-15T04:06:36.727Z,0
2017-09-15T04:07:37.331Z,0
2017-09-15T04:08:37.938Z,0
2017-09-15T04:09:38.545Z,0
2017-09-15T04:10:39.301Z,0
2017-09-15T04:11:39.908Z,0
2017-09-15T04:12:40.517Z,0
2017-09-15T04:13:41.123Z,0
2017-09-15T04:14:41.729Z,0
2017-09-15T04:15:42.487Z,0
2017-09-15T04:16:43.093Z,0
2017-09-15T04:17:43.731Z,0
2017-09-15T04:18:44.338Z,0
2017-09-15T04:19:44.943Z,0
2017-09-15T04:20:45.698Z,0
2017-09-15T04:21:46.306Z,0
2017-09-15T04:22:46.917Z,0
2017-09-15T04:23:47.522Z,0
2017-09-15T04:24:48.127Z,0
2017-09-15T04:25:48.884Z,0
2017-09-15T04:26:49.490Z,0
2017-09-15T04:27:50.095Z,0
2017-09-15T04:28:50.700Z,0
2017-09-15T04:29:51.305Z,0
2017-09-15T04:30:52.065Z,0
2017-09-15T04:31:52.707Z,0
2017-09-15T04:32:53.341Z,0
2017-09-15T04:33:53.957Z,0
2017-09-15T04:34:54.557Z,0
2017-09-15T04:35:55.313Z,0
2017-09-15T04:36:55.920Z,0
2017-09-15T04:37:56.526Z,0
2017-09-15T04:38:57.133Z,0
2017-09-15T04:39:57.742Z,0
2017-09-15T04:40:58.529Z,0
2017-09-15T04:41:59.137Z,0
2017-09-15T04:42:59.744Z,0
2017-09-15T04:44:00.349Z,0
2017-09-15T04:45:00.955Z,0
2017-09-15T04:46:01.712Z,0
2017-09-15T04:47:02.320Z,0
2017-09-15T04:48:02.928Z,0
2017-09-15T04:49:03.570Z,0
2017-09-15T04:50:04.174Z,0
2017-09-15T04:51:04.931Z,0
2017-09-15T04:52:05.539Z,0
2017-09-15T04:53:06.151Z,0
2017-09-15T04:54:06.761Z,0
2017-09-15T04:55:07.365Z,0
2017-09-15T04:56:08.120Z,0
2017-09-15T04:57:08.727Z,0
2017-09-15T04:58:09.333Z,0
2017-09-15T04:59:09.947Z,0
2017-09-15T05:00:10.549Z,0
2017-09-15T05:01:11.310Z,0
2017-09-15T05:02:11.916Z,0
2017-09-15T05:03:12.520Z,0
2017-09-15T05:04:13.132Z,0
2017-09-15T05:05:13.735Z,0
2017-09-15T05:06:14.492Z,0
2017-09-15T05:07:15.104Z,0
2017-09-15T05:08:15.712Z,0
2017-09-15T05:09:16.351Z,0
2017-09-15T05:10:16.957Z,0
2017-09-15T05:11:17.719Z,0
2017-09-15T05:12:18.326Z,0
2017-09-15T05:13:18.930Z,0
2017-09-15T05:14:19.541Z,0
2017-09-15T05:15:20.146Z,0
2017-09-15T05:16:20.908Z,0
2017-09-15T05:17:21.520Z,0
2017-09-15T05:18:22.131Z,0
2017-09-15T05:19:22.734Z,0
2017-09-15T05:20:23.350Z,0
2017-09-15T05:21:24.102Z,0
2017-09-15T05:22:24.707Z,0
2017-09-15T05:23:25.321Z,0
2017-09-15T05:24:25.925Z,0
2017-09-15T05:25:26.533Z,0
2017-09-15T05:26:27.288Z,0
2017-09-15T05:27:27.896Z,0
2017-09-15T05:28:28.502Z,0
2017-09-15T05:29:29.108Z,0
2017-09-15T05:30:29.717Z,0
2017-09-15T05:31:30.511Z,0
2017-09-15T05:32:31.148Z,0
2017-09-15T05:33:31.753Z,0
2017-09-15T05:34:32.398Z,0
2017-09-15T05:35:33.002Z,0
2017-09-15T05:36:33.759Z,0
2017-09-15T05:37:34.373Z,0
2017-09-15T05:38:35.014Z,0
2017-09-15T05:39:35.661Z,0
2017-09-15T05:40:36.267Z,0
2017-09-15T05:41:37.021Z,0
2017-09-15T05:42:37.672Z,0
2017-09-15T05:43:38.273Z,0
2017-09-15T05:44:38.880Z,0
2017-09-15T05:45:39.487Z,0
2017-09-15T05:46:40.251Z,0
2017-09-15T05:47:40.854Z,0
2017-09-15T05:48:41.469Z,0
2017-09-15T05:49:42.073Z,0
2017-09-15T05:50:42.682Z,0
2017-09-15T05:51:43.468Z,0
2017-09-15T05:52:44.075Z,0
2017-09-15T05:53:44.682Z,0
2017-09-15T05:54:45.296Z,0
2017-09-15T05:55:45.900Z,0
2017-09-15T05:56:46.761Z,0
2017-09-15T05:57:47.366Z,0
2017-09-15T05:58:47.974Z,0
2017-09-15T05:59:48.584Z,0
2017-09-15T06:00:49.197Z,0
2017-09-15T06:01:49.953Z,0
2017-09-15T06:02:50.562Z,0
2017-09-15T06:03:51.168Z,0
2017-09-15T06:04:51.776Z,0
2017-09-15T06:05:52.383Z,0
2017-09-15T06:06:53.145Z,0
2017-09-15T06:07:53.753Z,0
2017-09-15T06:08:54.358Z,0
2017-09-15T06:09:54.966Z,0
2017-09-15T06:10:55.579Z,0
2017-09-15T06:11:56.334Z,0
2017-09-15T06:12:56.941Z,0
2017-09-15T06:13:57.549Z,0
2017-09-15T06:14:58.158Z,0
2017-09-15T06:15:58.766Z,0
2017-09-15T06:16:59.528Z,0
2017-09-15T06:18:00.134Z,0
2017-09-15T06:19:00.742Z,0
2017-09-15T06:20:01.350Z,0
2017-09-15T06:21:01.956Z,0
2017-09-15T06:22:02.720Z,0
2017-09-15T06:23:03.324Z,0
2017-09-15T06:24:03.932Z,0
2017-09-15T06:25:04.540Z,0
2017-09-15T06:26:05.179Z,0
2017-09-15T06:27:05.937Z,0
2017-09-15T06:28:06.578Z,0
2017-09-15T06:29:07.218Z,0
2017-09-15T06:30:07.827Z,0
2017-09-15T06:31:08.436Z,0
2017-09-15T06:32:09.192Z,0
2017-09-15T06:33:09.831Z,0
2017-09-15T06:34:10.470Z,0
2017-09-15T06:35:11.076Z,5
2017-09-15T06:36:11.684Z,5
2017-09-15T06:37:12.443Z,5
2017-09-15T06:38:13.049Z,5
2017-09-15T06:39:13.658Z,5
2017-09-15T06:40:14.265Z,5
2017-09-15T06:41:14.880Z,5
2017-09-15T06:42:15.643Z,5
2017-09-15T06:43:16.284Z,5
2017-09-15T06:44:16.892Z,5
2017-09-15T06:45:17.497Z,5
2017-09-15T06:46:18.138Z,5
2017-09-15T06:47:18.896Z,5
2017-09-15T06:48:19.503Z,10
2017-09-15T06:49:20.119Z,10
2017-09-15T06:50:20.723Z,10
2017-09-15T06:51:21.331Z,10
2017-09-15T06:52:22.225Z,10
2017-09-15T06:53:22.831Z,10
2017-09-15T06:54:23.440Z,10
2017-09-15T06:55:24.049Z,10
2017-09-15T06:56:24.656Z,10
2017-09-15T06:57:25.418Z,10
2017-09-15T06:58:26.023Z,10
2017-09-15T06:59:26.632Z,10
2017-09-15T07:00:27.245Z,10
2017-09-15T07:01:27.852Z,10
2017-09-15T07:02:28.612Z,10
2017-09-15T07:03:29.222Z,10
2017-09-15T07:04:29.836Z,10
2017-09-15T07:05:30.443Z,10
2017-09-15T07:06:31.052Z,10
2017-09-15T07:07:31.846Z,10
2017-09-15T07:08:32.458Z,10
2017-09-15T07:09:33.063Z,10
2017-09-15T07:10:33.673Z,10
2017-09-15T07:11:34.284Z,10
2017-09-15T07:12:35.043Z,10
2017-09-15T07:13:35.688Z,10
2017-09-15T07:14:36.301Z,10
2017-09-15T07:15:36.912Z,10
2017-09-15T07:16:37.518Z,5
2017-09-15T07:17:38.277Z,10
2017-09-15T07:18:38.886Z,10
2017-09-15T07:19:39.497Z,10
2017-09-15T07:20:40.140Z,10
2017-09-15T07:21:40.752Z,10
2017-09-15T07:22:41.513Z,10
2017-09-15T07:23:42.123Z,10
2017-09-15T07:24:42.737Z,10
2017-09-15T07:25:43.359Z,10
2017-09-15T07:26:43.973Z,10
2017-09-15T07:27:44.736Z,10
2017-09-15T07:28:45.345Z,10
2017-09-15T07:29:45.958Z,10
2017-09-15T07:30:46.570Z,10
2017-09-15T07:31:47.176Z,5
2017-09-15T07:32:47.936Z,10
2017-09-15T07:33:48.545Z,10
2017-09-15T07:34:49.154Z,10
2017-09-15T07:35:49.765Z,10
2017-09-15T07:36:50.375Z,10
2017-09-15T07:37:51.141Z,10
2017-09-15T07:38:51.760Z,10
2017-09-15T07:39:52.367Z,10
2017-09-15T07:40:52.982Z,10
2017-09-15T07:41:53.624Z,10
2017-09-15T07:42:54.384Z,10
2017-09-15T07:43:54.995Z,10
2017-09-15T07:44:55.639Z,10
2017-09-15T07:45:56.249Z,10
2017-09-15T07:46:56.858Z,15
2017-09-15T07:47:57.674Z,15
2017-09-15T07:48:58.319Z,15
2017-09-15T07:49:58.901Z,15
2017-09-15T07:50:59.515Z,15
2017-09-15T07:52:00.123Z,15
2017-09-15T07:53:00.992Z,15
2017-09-15T07:54:01.602Z,15
2017-09-15T07:55:02.210Z,15
2017-09-15T07:56:02.820Z,15
2017-09-15T07:57:03.429Z,15
2017-09-15T07:58:04.239Z,15
2017-09-15T07:59:04.850Z,15
2017-09-15T08:00:05.461Z,15
2017-09-15T08:01:06.074Z,20
2017-09-15T08:02:06.683Z,15
2017-09-15T08:03:07.549Z,15
2017-09-15T08:04:08.162Z,15
2017-09-15T08:05:08.768Z,15
2017-09-15T08:06:09.380Z,15
2017-09-15T08:07:09.989Z,15
2017-09-15T08:08:10.752Z,10
2017-09-15T08:09:11.399Z,10
2017-09-15T08:10:12.007Z,10
2017-09-15T08:11:12.623Z,10
2017-09-15T08:12:13.237Z,10
2017-09-15T08:13:14.000Z,15
2017-09-15T08:14:14.606Z,15
2017-09-15T08:15:15.258Z,15
2017-09-15T08:16:15.895Z,15
2017-09-15T08:17:16.510Z,15
2017-09-15T08:18:17.271Z,15
2017-09-15T08:19:17.886Z,10
2017-09-15T08:20:18.529Z,15
2017-09-15T08:21:19.171Z,15
2017-09-15T08:22:19.781Z,15
2017-09-15T08:23:20.544Z,15
2017-09-15T08:24:21.154Z,10
2017-09-15T08:25:21.797Z,15
2017-09-15T08:26:22.405Z,15
2017-09-15T08:27:23.018Z,20
2017-09-15T08:28:23.777Z,20
2017-09-15T08:29:24.389Z,15
2017-09-15T08:30:25.002Z,20
2017-09-15T08:31:25.611Z,15
2017-09-15T08:32:26.222Z,25
2017-09-15T08:33:26.984Z,10
2017-09-15T08:34:27.593Z,10
2017-09-15T08:35:28.240Z,20
2017-09-15T08:36:28.849Z,20
2017-09-15T08:37:29.461Z,10
2017-09-15T08:38:30.218Z,15
2017-09-15T08:39:30.829Z,20
2017-09-15T08:40:31.439Z,15
2017-09-15T08:41:32.051Z,20
2017-09-15T08:42:32.663Z,20
2017-09-15T08:43:33.424Z,20
2017-09-15T08:44:34.037Z,20
2017-09-15T08:45:34.653Z,20
2017-09-15T08:46:35.263Z,25
2017-09-15T08:47:35.870Z,25
2017-09-15T08:48:36.630Z,20
2017-09-15T08:49:37.240Z,25
2017-09-15T08:50:37.851Z,25
2017-09-15T08:51:38.462Z,25
2017-09-15T08:52:39.080Z,25
2017-09-15T08:53:39.874Z,20
2017-09-15T08:54:40.517Z,20
2017-09-15T08:55:41.128Z,20
2017-09-15T08:56:41.739Z,25
2017-09-15T08:57:42.351Z,20
2017-09-15T08:58:43.112Z,25
2017-09-15T08:59:43.725Z,20
2017-09-15T09:00:44.337Z,20
2017-09-15T09:01:44.951Z,25
2017-09-15T09:02:45.562Z,30
2017-09-15T09:03:46.321Z,25
2017-09-15T09:04:46.970Z,20
2017-09-15T09:05:47.576Z,25
2017-09-15T09:06:48.194Z,25
2017-09-15T09:07:48.802Z,25
2017-09-15T09:08:49.567Z,20
2017-09-15T09:09:50.211Z,20
2017-09-15T09:10:50.820Z,20
2017-09-15T09:11:51.434Z,20
2017-09-15T09:12:52.043Z,20
2017-09-15T09:13:52.805Z,30
2017-09-15T09:14:53.416Z,20
2017-09-15T09:15:54.029Z,30
2017-09-15T09:16:54.645Z,25
2017-09-15T09:17:55.254Z,30
2017-09-15T09:18:56.046Z,25
2017-09-15T09:19:56.661Z,25
2017-09-15T09:20:57.273Z,25
2017-09-15T09:21:57.891Z,20
2017-09-15T09:22:58.498Z,20
2017-09-15T09:23:59.261Z,15
2017-09-15T09:24:59.878Z,20
2017-09-15T09:26:00.521Z,15
2017-09-15T09:27:01.133Z,20
2017-09-15T09:28:01.775Z,20
2017-09-15T09:29:02.538Z,20
2017-09-15T09:30:03.183Z,20
2017-09-15T09:31:03.798Z,20
2017-09-15T09:32:04.406Z,25
2017-09-15T09:33:05.020Z,25
2017-09-15T09:34:05.783Z,30
2017-09-15T09:35:06.401Z,25
2017-09-15T09:36:07.016Z,40
2017-09-15T09:37:07.626Z,20
2017-09-15T09:38:08.236Z,35
2017-09-15T09:39:09.003Z,40
2017-09-15T09:40:09.613Z,20
2017-09-15T09:41:10.224Z,35
2017-09-15T09:42:10.837Z,20
2017-09-15T09:43:11.452Z,15
2017-09-15T09:44:12.214Z,20
2017-09-15T09:45:12.864Z,35
2017-09-15T09:46:13.479Z,20
2017-09-15T09:47:14.087Z,40
2017-09-15T09:48:14.705Z,45
2017-09-15T09:49:15.504Z,50
2017-09-15T09:50:16.114Z,45
2017-09-15T09:51:16.726Z,45
2017-09-15T09:52:17.338Z,45
2017-09-15T09:53:17.949Z,45
2017-09-15T09:54:18.718Z,45
2017-09-15T09:55:19.328Z,40
2017-09-15T09:56:19.940Z,45
2017-09-15T09:57:20.554Z,50
2017-09-15T09:58:21.165Z,50
2017-09-15T09:59:21.932Z,25
2017-09-15T10:00:22.541Z,20
2017-09-15T10:01:23.161Z,20
2017-09-15T10:02:23.771Z,40
2017-09-15T10:03:24.382Z,50
2017-09-15T10:04:25.147Z,45
2017-09-15T10:05:25.765Z,50
2017-09-15T10:06:26.381Z,50
2017-09-15T10:07:26.988Z,50
2017-09-15T10:08:27.602Z,50
2017-09-15T10:09:28.364Z,50
2017-09-15T10:10:28.977Z,50
2017-09-15T10:11:29.595Z,45
2017-09-15T10:12:30.208Z,40
2017-09-15T10:13:30.847Z,35
2017-09-15T10:14:31.642Z,55
2017-09-15T10:15:32.256Z,50
2017-09-15T10:16:32.870Z,40
2017-09-15T10:17:33.489Z,50
2017-09-15T10:18:34.104Z,60
2017-09-15T10:19:34.870Z,60
2017-09-15T10:20:35.486Z,60
2017-09-15T10:21:36.098Z,50
2017-09-15T10:22:36.722Z,40
2017-09-15T10:23:37.335Z,50
2017-09-15T10:24:38.101Z,50
2017-09-15T10:25:38.711Z,50
2017-09-15T10:26:39.326Z,35
2017-09-15T10:27:39.944Z,35
2017-09-15T10:28:40.557Z,40
2017-09-15T10:29:41.320Z,40
2017-09-15T10:30:41.935Z,40
2017-09-15T10:31:42.580Z,45
2017-09-15T10:32:43.197Z,45
2017-09-15T10:33:43.815Z,50
2017-09-15T10:34:44.575Z,50
2017-09-15T10:35:45.190Z,35
2017-09-15T10:36:45.805Z,30
2017-09-15T10:37:46.418Z,30
2017-09-15T10:38:47.031Z,20
2017-09-15T10:39:47.800Z,20
2017-09-15T10:40:48.420Z,15
2017-09-15T10:41:49.033Z,15
2017-09-15T10:42:49.647Z,25
2017-09-15T10:43:50.260Z,45
2017-09-15T10:44:51.028Z,60
2017-09-15T10:45:51.674Z,60
2017-09-15T10:46:52.324Z,60
2017-09-15T10:47:52.937Z,60
2017-09-15T10:48:53.559Z,60
2017-09-15T10:49:54.320Z,60
2017-09-15T10:50:54.936Z,60
2017-09-15T10:51:55.550Z,60
2017-09-15T10:52:56.165Z,60
2017-09-15T10:53:56.784Z,60
2017-09-15T10:54:57.554Z,60
2017-09-15T10:55:58.176Z,65
2017-09-15T10:56:58.785Z,60
2017-09-15T10:57:59.401Z,60
2017-09-15T10:59:00.015Z,60
2017-09-15T11:00:00.783Z,60
2017-09-15T11:01:01.397Z,60
2017-09-15T11:02:02.014Z,60
2017-09-15T11:03:02.635Z,70
2017-09-15T11:04:03.247Z,60
2017-09-15T11:05:04.044Z,60
2017-09-15T11:06:04.661Z,60
2017-09-15T11:07:05.281Z,60
2017-09-15T11:08:05.893Z,60
2017-09-15T11:09:06.515Z,60
2017-09-15T11:10:07.283Z,60
2017-09-15T11:11:07.898Z,60
2017-09-15T11:12:08.513Z,60
2017-09-15T11:13:09.161Z,60
2017-09-15T11:14:09.779Z,60
2017-09-15T11:15:10.567Z,60
2017-09-15T11:16:11.161Z,65
2017-09-15T11:17:11.776Z,65
2017-09-15T11:18:12.391Z,65
2017-09-15T11:19:13.006Z,65
2017-09-15T11:20:13.773Z,60
2017-09-15T11:21:14.390Z,65
2017-09-15T11:22:15.007Z,65
2017-09-15T11:23:15.628Z,65
2017-09-15T11:24:16.244Z,65
2017-09-15T11:25:17.014Z,65
2017-09-15T11:26:17.635Z,65
2017-09-15T11:27:18.258Z,65
2017-09-15T11:28:18.871Z,60
2017-09-15T11:29:19.488Z,65
2017-09-15T11:30:20.255Z,65
2017-09-15T11:31:20.871Z,65
2017-09-15T11:32:21.488Z,65
2017-09-15T11:33:22.110Z,65
2017-09-15T11:34:22.761Z,65
2017-09-15T11:35:23.536Z,65
2017-09-15T11:36:24.151Z,65
2017-09-15T11:37:24.768Z,65
2017-09-15T11:38:25.395Z,65
2017-09-15T11:39:26.006Z,65
2017-09-15T11:40:26.774Z,65
2017-09-15T11:41:27.391Z,65
2017-09-15T11:42:28.011Z,65
2017-09-15T11:43:28.629Z,65
2017-09-15T11:44:29.247Z,65
2017-09-15T11:45:30.017Z,65
2017-09-15T11:46:30.635Z,65
2017-09-15T11:47:31.252Z,65
2017-09-15T11:48:31.870Z,65
2017-09-15T11:49:32.487Z,65
2017-09-15T11:50:33.259Z,65
2017-09-15T11:51:33.873Z,65
2017-09-15T11:52:34.497Z,65
2017-09-15T11:53:35.112Z,65
2017-09-15T11:54:35.739Z,65
2017-09-15T11:55:36.501Z,65
2017-09-15T11:56:37.127Z,65
2017-09-15T11:57:37.742Z,65
2017-09-15T11:58:38.359Z,65
2017-09-15T11:59:38.980Z,65
2017-09-15T12:00:39.753Z,65
2017-09-15T12:01:40.370Z,65
2017-09-15T12:02:40.986Z,65
2017-09-15T12:03:41.610Z,70
2017-09-15T12:04:42.230Z,65
2017-09-15T12:05:42.999Z,60
2017-09-15T12:06:43.648Z,50
2017-09-15T12:07:44.270Z,45
2017-09-15T12:08:44.885Z,45
2017-09-15T12:09:45.504Z,65
2017-09-15T12:10:46.275Z,70
2017-09-15T12:11:46.897Z,75
2017-09-15T12:12:47.510Z,60
2017-09-15T12:13:48.160Z,70
2017-09-15T12:14:48.779Z,75
2017-09-15T12:15:49.546Z,70
2017-09-15T12:16:50.202Z,70
2017-09-15T12:17:50.824Z,70
2017-09-15T12:18:51.448Z,70
2017-09-15T12:19:52.063Z,75
2017-09-15T12:20:52.933Z,70
2017-09-15T12:21:53.552Z,70
2017-09-15T12:22:54.168Z,70
2017-09-15T12:23:54.786Z,70
2017-09-15T12:24:55.413Z,70
2017-09-15T12:25:56.175Z,70
2017-09-15T12:26:56.793Z,70
2017-09-15T12:27:57.411Z,70
2017-09-15T12:28:58.070Z,75
2017-09-15T12:29:58.691Z,75
2017-09-15T12:30:59.461Z,75
2017-09-15T12:32:00.076Z,70
2017-09-15T12:33:00.696Z,75
2017-09-15T12:34:01.310Z,70
2017-09-15T12:35:01.928Z,70
2017-09-15T12:36:02.730Z,65
2017-09-15T12:37:03.356Z,60
2017-09-15T12:38:03.971Z,65
2017-09-15T12:39:04.620Z,65
2017-09-15T12:40:05.276Z,70
2017-09-15T12:41:06.041Z,75
2017-09-15T12:42:06.667Z,70
2017-09-15T12:43:07.291Z,65
2017-09-15T12:44:07.900Z,65
2017-09-15T12:45:08.520Z,60
2017-09-15T12:46:09.388Z,70
2017-09-15T12:47:10.007Z,60
2017-09-15T12:48:10.625Z,60
2017-09-15T12:49:11.247Z,50
2017-09-15T12:50:11.865Z,55
2017-09-15T12:51:12.665Z,55
2017-09-15T12:52:13.284Z,35
2017-09-15T12:53:13.900Z,50
2017-09-15T12:54:14.516Z,45
2017-09-15T12:55:15.133Z,40
2017-09-15T12:56:15.901Z,40
2017-09-15T12:57:16.524Z,50
2017-09-15T12:58:17.173Z,60
2017-09-15T12:59:17.791Z,45
2017-09-15T13:00:18.408Z,40
2017-09-15T13:01:19.176Z,45
2017-09-15T13:02:19.798Z,45
2017-09-15T13:03:20.419Z,40
2017-09-15T13:04:21.044Z,35
2017-09-15T13:05:21.651Z,45
2017-09-15T13:06:22.572Z,40
2017-09-15T13:07:23.222Z,45
2017-09-15T13:08:23.840Z,40
2017-09-15T13:09:24.457Z,40
2017-09-15T13:10:25.074Z,40
2017-09-15T13:11:25.842Z,40
2017-09-15T13:12:26.465Z,45
2017-09-15T13:13:27.115Z,50
2017-09-15T13:14:27.731Z,45
2017-09-15T13:15:28.355Z,45
2017-09-15T13:16:29.170Z,45
2017-09-15T13:17:29.787Z,30
2017-09-15T13:18:30.406Z,30
2017-09-15T13:19:31.022Z,45
2017-09-15T13:20:31.639Z,40
2017-09-15T13:21:32.409Z,35
2017-09-15T13:22:33.026Z,40
2017-09-15T13:23:33.651Z,45
2017-09-15T13:24:34.266Z,45
2017-09-15T13:25:34.884Z,45
2017-09-15T13:26:35.682Z,55
2017-09-15T13:27:36.300Z,50
2017-09-15T13:28:36.918Z,55
2017-09-15T13:29:37.572Z,55
2017-09-15T13:30:38.188Z,65
2017-09-15T13:31:38.961Z,70
2017-09-15T13:32:39.577Z,70
2017-09-15T13:33:40.196Z,80
2017-09-15T13:34:40.825Z,65
2017-09-15T13:35:41.432Z,45
2017-09-15T13:36:42.200Z,50
2017-09-15T13:37:42.823Z,75
2017-09-15T13:38:43.437Z,75
2017-09-15T13:39:44.055Z,55
2017-09-15T13:40:44.673Z,55
2017-09-15T13:41:45.591Z,50
2017-09-15T13:42:46.214Z,35
2017-09-15T13:43:46.833Z,35
2017-09-15T13:44:47.445Z,45
2017-09-15T13:45:48.064Z,40
2017-09-15T13:46:48.867Z,30
2017-09-15T13:47:49.487Z,30
2017-09-15T13:48:50.109Z,30
2017-09-15T13:49:50.723Z,30
2017-09-15T13:50:51.371Z,35
2017-09-15T13:51:52.144Z,45
2017-09-15T13:52:52.758Z,65
2017-09-15T13:53:53.408Z,85
2017-09-15T13:54:54.025Z,60
2017-09-15T13:55:54.641Z,35
2017-09-15T13:56:55.412Z,60
2017-09-15T13:57:56.028Z,40
2017-09-15T13:58:56.649Z,50
2017-09-15T13:59:57.265Z,35
2017-09-15T14:00:57.882Z,30
2017-09-15T14:01:58.654Z,45
2017-09-15T14:02:59.270Z,45
2017-09-15T14:03:59.892Z,50
2017-09-15T14:05:00.506Z,65
2017-09-15T14:06:01.129Z,50
2017-09-15T14:07:01.893Z,55
2017-09-15T14:08:02.511Z,65
2017-09-15T14:09:03.133Z,45
2017-09-15T14:10:03.759Z,45
2017-09-15T14:11:04.369Z,65
2017-09-15T14:12:05.137Z,60
2017-09-15T14:13:05.757Z,45
2017-09-15T14:14:06.373Z,60
2017-09-15T14:15:06.994Z,55
2017-09-15T14:16:07.610Z,60
2017-09-15T14:17:08.376Z,40
2017-09-15T14:18:09.000Z,40
2017-09-15T14:19:09.614Z,35
2017-09-15T14:20:10.230Z,40
2017-09-15T14:21:10.857Z,40
2017-09-15T14:22:11.803Z,40
2017-09-15T14:23:12.427Z,50
2017-09-15T14:24:13.041Z,50
2017-09-15T14:25:13.663Z,65
2017-09-15T14:26:14.287Z,50
2017-09-15T14:27:15.051Z,55
2017-09-15T14:28:15.668Z,50
2017-09-15T14:29:16.292Z,55
2017-09-15T14:30:16.906Z,40
2017-09-15T14:31:17.525Z,35
2017-09-15T14:32:18.396Z,40
2017-09-15T14:33:19.046Z,30
2017-09-15T14:34:19.664Z,35
2017-09-15T14:35:20.281Z,30
2017-09-15T14:36:20.910Z,30
2017-09-15T14:37:21.770Z,35
2017-09-15T14:38:22.420Z,35
2017-09-15T14:39:23.038Z,35